sensor_id;sensor_type;location;lat;lon;timestamp;P1;durP1;ratioP1;P2;durP2;ratioP2
71166;SDS011;58864;45.928;20.078;2023-11-22T00:01:53;29.20;;;12.07;;
71166;SDS011;58864;45.928;20.078;2023-11-22T00:04:18;24.40;;;11.27;;
71166;SDS011;58864;45.928;20.078;2023-11-22T00:06:42;28.75;;;12.20;;
71166;SDS011;58864;45.928;20.078;2023-11-22T00:09:07;20.97;;;10.70;;
71166;SDS011;58864;45.928;20.078;2023-11-22T00:11:31;23.77;;;10.57;;
71166;SDS011;58864;45.928;20.078;2023-11-22T00:13:56;24.00;;;10.77;;
71166;SDS011;58864;45.928;20.078;2023-11-22T00:16:20;21.43;;;10.70;;
71166;SDS011;58864;45.928;20.078;2023-11-22T00:18:45;24.00;;;11.30;;
71166;SDS011;58864;45.928;20.078;2023-11-22T00:21:09;23.23;;;10.90;;
71166;SDS011;58864;45.928;20.078;2023-11-22T00:23:34;26.70;;;11.50;;
71166;SDS011;58864;45.928;20.078;2023-11-22T00:25:58;24.00;;;11.53;;
71166;SDS011;58864;45.928;20.078;2023-11-22T00:28:23;25.07;;;11.03;;
71166;SDS011;58864;45.928;20.078;2023-11-22T00:30:47;24.25;;;12.38;;
71166;SDS011;58864;45.928;20.078;2023-11-22T00:33:11;27.63;;;12.90;;
71166;SDS011;58864;45.928;20.078;2023-11-22T00:35:36;25.60;;;12.50;;
71166;SDS011;58864;45.928;20.078;2023-11-22T00:38:00;23.20;;;11.55;;
71166;SDS011;58864;45.928;20.078;2023-11-22T00:40:25;25.87;;;12.67;;
71166;SDS011;58864;45.928;20.078;2023-11-22T00:42:49;28.57;;;12.40;;
71166;SDS011;58864;45.928;20.078;2023-11-22T00:45:14;28.00;;;12.80;;
71166;SDS011;58864;45.928;20.078;2023-11-22T00:47:38;28.10;;;13.25;;
71166;SDS011;58864;45.928;20.078;2023-11-22T00:50:03;26.07;;;12.07;;
71166;SDS011;58864;45.928;20.078;2023-11-22T00:52:28;26.40;;;12.93;;
71166;SDS011;58864;45.928;20.078;2023-11-22T00:54:53;27.43;;;13.23;;
71166;SDS011;58864;45.928;20.078;2023-11-22T00:57:17;28.27;;;13.90;;
71166;SDS011;58864;45.928;20.078;2023-11-22T00:59:42;28.40;;;13.48;;
71166;SDS011;58864;45.928;20.078;2023-11-22T01:02:06;25.77;;;13.43;;
71166;SDS011;58864;45.928;20.078;2023-11-22T01:04:32;26.33;;;13.77;;
71166;SDS011;58864;45.928;20.078;2023-11-22T01:06:59;30.77;;;14.95;;
71166;SDS011;58864;45.928;20.078;2023-11-22T01:09:24;26.50;;;14.00;;
71166;SDS011;58864;45.928;20.078;2023-11-22T01:11:48;29.00;;;14.67;;
71166;SDS011;58864;45.928;20.078;2023-11-22T01:14:13;30.47;;;14.97;;
71166;SDS011;58864;45.928;20.078;2023-11-22T01:16:37;33.72;;;15.25;;
71166;SDS011;58864;45.928;20.078;2023-11-22T01:19:02;32.57;;;16.43;;
71166;SDS011;58864;45.928;20.078;2023-11-22T01:21:26;31.90;;;15.47;;
71166;SDS011;58864;45.928;20.078;2023-11-22T01:23:50;35.43;;;16.40;;
71166;SDS011;58864;45.928;20.078;2023-11-22T01:26:15;31.15;;;15.02;;
71166;SDS011;58864;45.928;20.078;2023-11-22T01:28:40;29.20;;;14.83;;
71166;SDS011;58864;45.928;20.078;2023-11-22T01:31:08;33.70;;;15.90;;
71166;SDS011;58864;45.928;20.078;2023-11-22T01:33:32;31.37;;;15.90;;
71166;SDS011;58864;45.928;20.078;2023-11-22T01:35:58;35.97;;;16.00;;
71166;SDS011;58864;45.928;20.078;2023-11-22T01:38:23;38.70;;;17.40;;
71166;SDS011;58864;45.928;20.078;2023-11-22T01:40:50;36.60;;;17.27;;
71166;SDS011;58864;45.928;20.078;2023-11-22T01:43:18;35.45;;;17.10;;
71166;SDS011;58864;45.928;20.078;2023-11-22T01:45:44;36.20;;;16.70;;
71166;SDS011;58864;45.928;20.078;2023-11-22T01:48:09;37.85;;;17.42;;
71166;SDS011;58864;45.928;20.078;2023-11-22T01:50:34;34.60;;;16.40;;
71166;SDS011;58864;45.928;20.078;2023-11-22T01:52:59;35.47;;;16.98;;
71166;SDS011;58864;45.928;20.078;2023-11-22T01:55:24;36.47;;;17.43;;
71166;SDS011;58864;45.928;20.078;2023-11-22T01:57:48;36.78;;;18.05;;
71166;SDS011;58864;45.928;20.078;2023-11-22T02:00:13;35.80;;;18.13;;
71166;SDS011;58864;45.928;20.078;2023-11-22T02:02:38;38.30;;;18.42;;
71166;SDS011;58864;45.928;20.078;2023-11-22T02:05:02;39.97;;;18.23;;
71166;SDS011;58864;45.928;20.078;2023-11-22T02:07:27;45.80;;;20.10;;
71166;SDS011;58864;45.928;20.078;2023-11-22T02:09:51;39.07;;;18.17;;
71166;SDS011;58864;45.928;20.078;2023-11-22T02:12:17;46.43;;;18.90;;
71166;SDS011;58864;45.928;20.078;2023-11-22T02:14:41;44.30;;;18.77;;
71166;SDS011;58864;45.928;20.078;2023-11-22T02:17:05;46.47;;;19.27;;
71166;SDS011;58864;45.928;20.078;2023-11-22T02:19:30;48.47;;;19.00;;
71166;SDS011;58864;45.928;20.078;2023-11-22T02:21:54;46.53;;;18.17;;
71166;SDS011;58864;45.928;20.078;2023-11-22T02:24:19;43.53;;;17.65;;
71166;SDS011;58864;45.928;20.078;2023-11-22T02:26:44;45.70;;;18.50;;
71166;SDS011;58864;45.928;20.078;2023-11-22T02:29:09;41.08;;;17.77;;
71166;SDS011;58864;45.928;20.078;2023-11-22T02:31:34;47.63;;;18.37;;
71166;SDS011;58864;45.928;20.078;2023-11-22T02:33:58;47.03;;;17.63;;
71166;SDS011;58864;45.928;20.078;2023-11-22T02:36:23;42.70;;;17.00;;
71166;SDS011;58864;45.928;20.078;2023-11-22T02:38:48;43.85;;;17.35;;
71166;SDS011;58864;45.928;20.078;2023-11-22T02:41:14;44.67;;;17.08;;
71166;SDS011;58864;45.928;20.078;2023-11-22T02:43:38;44.20;;;17.27;;
71166;SDS011;58864;45.928;20.078;2023-11-22T02:46:03;46.50;;;16.70;;
71166;SDS011;58864;45.928;20.078;2023-11-22T02:48:27;41.13;;;15.90;;
71166;SDS011;58864;45.928;20.078;2023-11-22T02:50:52;46.63;;;16.57;;
71166;SDS011;58864;45.928;20.078;2023-11-22T02:53:18;42.72;;;15.75;;
71166;SDS011;58864;45.928;20.078;2023-11-22T02:55:42;41.77;;;16.13;;
71166;SDS011;58864;45.928;20.078;2023-11-22T02:58:07;44.17;;;15.32;;
71166;SDS011;58864;45.928;20.078;2023-11-22T03:00:31;42.13;;;15.83;;
71166;SDS011;58864;45.928;20.078;2023-11-22T03:02:58;37.15;;;15.38;;
71166;SDS011;58864;45.928;20.078;2023-11-22T03:05:22;45.60;;;16.53;;
71166;SDS011;58864;45.928;20.078;2023-11-22T03:07:48;40.88;;;15.40;;
71166;SDS011;58864;45.928;20.078;2023-11-22T03:10:15;38.63;;;15.20;;
71166;SDS011;58864;45.928;20.078;2023-11-22T03:12:41;39.17;;;14.73;;
71166;SDS011;58864;45.928;20.078;2023-11-22T03:15:06;42.23;;;14.77;;
71166;SDS011;58864;45.928;20.078;2023-11-22T03:17:31;37.95;;;15.00;;
71166;SDS011;58864;45.928;20.078;2023-11-22T03:19:57;43.22;;;16.15;;
71166;SDS011;58864;45.928;20.078;2023-11-22T03:22:22;39.70;;;14.25;;
71166;SDS011;58864;45.928;20.078;2023-11-22T03:24:49;38.45;;;14.13;;
71166;SDS011;58864;45.928;20.078;2023-11-22T03:27:14;41.20;;;15.43;;
71166;SDS011;58864;45.928;20.078;2023-11-22T03:29:38;41.47;;;15.23;;
71166;SDS011;58864;45.928;20.078;2023-11-22T03:32:03;42.87;;;14.53;;
71166;SDS011;58864;45.928;20.078;2023-11-22T03:34:28;42.22;;;15.20;;
71166;SDS011;58864;45.928;20.078;2023-11-22T03:36:52;46.83;;;15.63;;
71166;SDS011;58864;45.928;20.078;2023-11-22T03:39:16;40.33;;;14.90;;
71166;SDS011;58864;45.928;20.078;2023-11-22T03:41:41;41.17;;;15.03;;
71166;SDS011;58864;45.928;20.078;2023-11-22T03:44:06;40.03;;;15.43;;
71166;SDS011;58864;45.928;20.078;2023-11-22T03:46:33;41.87;;;15.40;;
71166;SDS011;58864;45.928;20.078;2023-11-22T03:48:57;44.17;;;15.45;;
71166;SDS011;58864;45.928;20.078;2023-11-22T03:51:22;40.80;;;14.63;;
71166;SDS011;58864;45.928;20.078;2023-11-22T03:53:47;43.57;;;14.73;;
71166;SDS011;58864;45.928;20.078;2023-11-22T03:56:11;43.50;;;15.10;;
71166;SDS011;58864;45.928;20.078;2023-11-22T03:58:36;39.50;;;15.20;;
71166;SDS011;58864;45.928;20.078;2023-11-22T04:01:00;44.70;;;15.95;;
71166;SDS011;58864;45.928;20.078;2023-11-22T04:03:26;47.33;;;15.73;;
71166;SDS011;58864;45.928;20.078;2023-11-22T04:05:51;43.08;;;15.43;;
71166;SDS011;58864;45.928;20.078;2023-11-22T04:08:15;44.10;;;15.80;;
71166;SDS011;58864;45.928;20.078;2023-11-22T04:10:40;36.40;;;14.07;;
71166;SDS011;58864;45.928;20.078;2023-11-22T04:13:04;39.10;;;14.30;;
71166;SDS011;58864;45.928;20.078;2023-11-22T04:15:29;39.63;;;14.23;;
71166;SDS011;58864;45.928;20.078;2023-11-22T04:17:53;39.10;;;14.03;;
71166;SDS011;58864;45.928;20.078;2023-11-22T04:20:18;40.10;;;14.23;;
71166;SDS011;58864;45.928;20.078;2023-11-22T04:22:44;38.03;;;14.97;;
71166;SDS011;58864;45.928;20.078;2023-11-22T04:25:11;43.15;;;16.08;;
71166;SDS011;58864;45.928;20.078;2023-11-22T04:27:39;44.67;;;14.77;;
71166;SDS011;58864;45.928;20.078;2023-11-22T04:30:04;45.67;;;16.58;;
71166;SDS011;58864;45.928;20.078;2023-11-22T04:32:32;44.13;;;16.10;;
71166;SDS011;58864;45.928;20.078;2023-11-22T04:34:57;44.43;;;15.43;;
71166;SDS011;58864;45.928;20.078;2023-11-22T04:37:22;42.88;;;15.07;;
71166;SDS011;58864;45.928;20.078;2023-11-22T04:39:50;44.40;;;15.77;;
71166;SDS011;58864;45.928;20.078;2023-11-22T04:42:16;44.65;;;15.57;;
71166;SDS011;58864;45.928;20.078;2023-11-22T04:44:40;43.97;;;15.17;;
71166;SDS011;58864;45.928;20.078;2023-11-22T04:47:05;46.35;;;16.13;;
71166;SDS011;58864;45.928;20.078;2023-11-22T04:49:30;41.30;;;14.77;;
71166;SDS011;58864;45.928;20.078;2023-11-22T04:51:56;48.78;;;14.82;;
71166;SDS011;58864;45.928;20.078;2023-11-22T04:54:20;40.63;;;14.40;;
71166;SDS011;58864;45.928;20.078;2023-11-22T04:56:45;42.90;;;15.50;;
71166;SDS011;58864;45.928;20.078;2023-11-22T04:59:09;41.10;;;15.10;;
71166;SDS011;58864;45.928;20.078;2023-11-22T05:01:34;47.33;;;14.93;;
71166;SDS011;58864;45.928;20.078;2023-11-22T05:03:59;40.22;;;15.40;;
71166;SDS011;58864;45.928;20.078;2023-11-22T05:06:23;41.80;;;14.90;;
71166;SDS011;58864;45.928;20.078;2023-11-22T05:08:47;45.35;;;15.50;;
71166;SDS011;58864;45.928;20.078;2023-11-22T05:11:12;44.10;;;15.50;;
71166;SDS011;58864;45.928;20.078;2023-11-22T05:13:36;41.57;;;14.83;;
71166;SDS011;58864;45.928;20.078;2023-11-22T05:16:01;42.20;;;15.73;;
71166;SDS011;58864;45.928;20.078;2023-11-22T05:18:25;40.00;;;14.93;;
71166;SDS011;58864;45.928;20.078;2023-11-22T05:20:49;45.92;;;16.00;;
71166;SDS011;58864;45.928;20.078;2023-11-22T05:23:14;37.33;;;14.33;;
71166;SDS011;58864;45.928;20.078;2023-11-22T05:25:38;41.63;;;14.70;;
71166;SDS011;58864;45.928;20.078;2023-11-22T05:28:03;39.03;;;15.07;;
71166;SDS011;58864;45.928;20.078;2023-11-22T05:30:27;44.97;;;15.80;;
71166;SDS011;58864;45.928;20.078;2023-11-22T05:32:52;42.50;;;16.13;;
71166;SDS011;58864;45.928;20.078;2023-11-22T05:35:16;40.43;;;14.27;;
71166;SDS011;58864;45.928;20.078;2023-11-22T05:37:41;38.28;;;15.38;;
71166;SDS011;58864;45.928;20.078;2023-11-22T05:40:05;38.77;;;14.43;;
71166;SDS011;58864;45.928;20.078;2023-11-22T05:42:33;47.80;;;15.98;;
71166;SDS011;58864;45.928;20.078;2023-11-22T05:44:59;52.50;;;17.35;;
71166;SDS011;58864;45.928;20.078;2023-11-22T05:47:23;41.80;;;15.93;;
71166;SDS011;58864;45.928;20.078;2023-11-22T05:49:47;44.30;;;15.97;;
71166;SDS011;58864;45.928;20.078;2023-11-22T05:52:12;45.63;;;16.73;;
71166;SDS011;58864;45.928;20.078;2023-11-22T05:54:36;49.53;;;16.77;;
71166;SDS011;58864;45.928;20.078;2023-11-22T05:57:01;46.33;;;16.93;;
71166;SDS011;58864;45.928;20.078;2023-11-22T05:59:25;41.37;;;16.63;;
71166;SDS011;58864;45.928;20.078;2023-11-22T06:01:50;40.13;;;15.47;;
71166;SDS011;58864;45.928;20.078;2023-11-22T06:04:14;43.83;;;16.17;;
71166;SDS011;58864;45.928;20.078;2023-11-22T06:06:39;39.73;;;14.77;;
71166;SDS011;58864;45.928;20.078;2023-11-22T06:09:03;34.37;;;13.93;;
71166;SDS011;58864;45.928;20.078;2023-11-22T06:11:29;36.03;;;14.55;;
71166;SDS011;58864;45.928;20.078;2023-11-22T06:13:54;42.50;;;14.85;;
71166;SDS011;58864;45.928;20.078;2023-11-22T06:16:19;40.30;;;15.20;;
71166;SDS011;58864;45.928;20.078;2023-11-22T06:18:43;36.92;;;14.05;;
71166;SDS011;58864;45.928;20.078;2023-11-22T06:21:08;38.13;;;13.60;;
71166;SDS011;58864;45.928;20.078;2023-11-22T06:23:33;35.28;;;13.88;;
71166;SDS011;58864;45.928;20.078;2023-11-22T06:25:57;36.83;;;13.80;;
71166;SDS011;58864;45.928;20.078;2023-11-22T06:28:21;35.50;;;14.47;;
71166;SDS011;58864;45.928;20.078;2023-11-22T06:30:46;33.95;;;12.85;;
71166;SDS011;58864;45.928;20.078;2023-11-22T06:33:11;36.23;;;12.83;;
71166;SDS011;58864;45.928;20.078;2023-11-22T06:35:37;31.40;;;12.80;;
71166;SDS011;58864;45.928;20.078;2023-11-22T06:38:01;34.10;;;12.87;;
71166;SDS011;58864;45.928;20.078;2023-11-22T06:40:26;32.88;;;13.38;;
71166;SDS011;58864;45.928;20.078;2023-11-22T06:42:50;33.13;;;12.87;;
71166;SDS011;58864;45.928;20.078;2023-11-22T06:45:15;37.55;;;13.85;;
71166;SDS011;58864;45.928;20.078;2023-11-22T06:47:40;32.77;;;13.43;;
71166;SDS011;58864;45.928;20.078;2023-11-22T06:50:06;31.65;;;12.63;;
71166;SDS011;58864;45.928;20.078;2023-11-22T06:52:33;33.55;;;13.00;;
71166;SDS011;58864;45.928;20.078;2023-11-22T06:54:58;31.97;;;12.23;;
71166;SDS011;58864;45.928;20.078;2023-11-22T06:57:22;31.55;;;12.90;;
71166;SDS011;58864;45.928;20.078;2023-11-22T06:59:52;32.00;;;12.47;;
71166;SDS011;58864;45.928;20.078;2023-11-22T07:02:17;35.03;;;12.82;;
71166;SDS011;58864;45.928;20.078;2023-11-22T07:04:41;31.70;;;12.20;;
71166;SDS011;58864;45.928;20.078;2023-11-22T07:07:06;29.60;;;12.27;;
71166;SDS011;58864;45.928;20.078;2023-11-22T07:09:35;28.63;;;11.95;;
71166;SDS011;58864;45.928;20.078;2023-11-22T07:12:00;35.10;;;12.57;;
71166;SDS011;58864;45.928;20.078;2023-11-22T07:14:25;30.50;;;11.67;;
71166;SDS011;58864;45.928;20.078;2023-11-22T07:16:50;30.70;;;12.25;;
71166;SDS011;58864;45.928;20.078;2023-11-22T07:19:15;32.47;;;11.47;;
71166;SDS011;58864;45.928;20.078;2023-11-22T07:21:39;32.28;;;12.85;;
71166;SDS011;58864;45.928;20.078;2023-11-22T07:24:04;28.13;;;12.20;;
71166;SDS011;58864;45.928;20.078;2023-11-22T07:26:30;29.98;;;12.38;;
71166;SDS011;58864;45.928;20.078;2023-11-22T07:28:55;30.10;;;12.37;;
71166;SDS011;58864;45.928;20.078;2023-11-22T07:31:19;32.40;;;12.60;;
71166;SDS011;58864;45.928;20.078;2023-11-22T07:33:44;28.77;;;11.95;;
71166;SDS011;58864;45.928;20.078;2023-11-22T07:36:08;29.17;;;12.23;;
71166;SDS011;58864;45.928;20.078;2023-11-22T07:38:33;29.73;;;11.60;;
71166;SDS011;58864;45.928;20.078;2023-11-22T07:40:58;35.83;;;11.47;;
71166;SDS011;58864;45.928;20.078;2023-11-22T07:43:22;29.92;;;12.23;;
71166;SDS011;58864;45.928;20.078;2023-11-22T07:45:47;31.30;;;11.40;;
71166;SDS011;58864;45.928;20.078;2023-11-22T07:48:12;27.27;;;10.77;;
71166;SDS011;58864;45.928;20.078;2023-11-22T07:50:37;26.10;;;11.60;;
71166;SDS011;58864;45.928;20.078;2023-11-22T07:53:03;28.35;;;11.38;;
71166;SDS011;58864;45.928;20.078;2023-11-22T07:55:28;27.77;;;10.60;;
71166;SDS011;58864;45.928;20.078;2023-11-22T07:57:53;29.80;;;11.73;;
71166;SDS011;58864;45.928;20.078;2023-11-22T08:00:19;25.85;;;10.98;;
71166;SDS011;58864;45.928;20.078;2023-11-22T08:02:47;27.77;;;11.37;;
71166;SDS011;58864;45.928;20.078;2023-11-22T08:05:12;27.95;;;11.70;;
71166;SDS011;58864;45.928;20.078;2023-11-22T08:07:36;27.73;;;11.50;;
71166;SDS011;58864;45.928;20.078;2023-11-22T08:10:05;28.58;;;11.73;;
71166;SDS011;58864;45.928;20.078;2023-11-22T08:12:33;29.52;;;11.82;;
71166;SDS011;58864;45.928;20.078;2023-11-22T08:14:58;26.03;;;11.13;;
71166;SDS011;58864;45.928;20.078;2023-11-22T08:17:25;29.80;;;12.53;;
71166;SDS011;58864;45.928;20.078;2023-11-22T08:19:53;32.40;;;11.70;;
71166;SDS011;58864;45.928;20.078;2023-11-22T08:22:18;24.92;;;10.98;;
71166;SDS011;58864;45.928;20.078;2023-11-22T08:24:42;30.07;;;11.53;;
71166;SDS011;58864;45.928;20.078;2023-11-22T08:27:08;27.75;;;11.38;;
71166;SDS011;58864;45.928;20.078;2023-11-22T08:29:32;23.43;;;11.23;;
71166;SDS011;58864;45.928;20.078;2023-11-22T08:31:57;24.87;;;11.33;;
71166;SDS011;58864;45.928;20.078;2023-11-22T08:34:22;25.38;;;10.23;;
71166;SDS011;58864;45.928;20.078;2023-11-22T08:36:46;23.47;;;10.47;;
71166;SDS011;58864;45.928;20.078;2023-11-22T08:39:11;24.98;;;11.27;;
71166;SDS011;58864;45.928;20.078;2023-11-22T08:41:35;27.13;;;12.20;;
71166;SDS011;58864;45.928;20.078;2023-11-22T08:43:59;31.37;;;13.20;;
71166;SDS011;58864;45.928;20.078;2023-11-22T08:46:24;29.83;;;12.60;;
71166;SDS011;58864;45.928;20.078;2023-11-22T08:48:51;27.03;;;11.60;;
71166;SDS011;58864;45.928;20.078;2023-11-22T08:51:16;28.73;;;12.97;;
71166;SDS011;58864;45.928;20.078;2023-11-22T08:53:41;22.63;;;9.73;;
71166;SDS011;58864;45.928;20.078;2023-11-22T08:56:08;27.58;;;12.02;;
71166;SDS011;58864;45.928;20.078;2023-11-22T08:58:33;21.02;;;9.45;;
71166;SDS011;58864;45.928;20.078;2023-11-22T09:00:58;23.37;;;9.73;;
71166;SDS011;58864;45.928;20.078;2023-11-22T09:03:22;21.20;;;9.07;;
71166;SDS011;58864;45.928;20.078;2023-11-22T09:05:47;21.03;;;9.53;;
71166;SDS011;58864;45.928;20.078;2023-11-22T09:08:13;20.23;;;8.20;;
71166;SDS011;58864;45.928;20.078;2023-11-22T09:10:39;21.05;;;8.82;;
71166;SDS011;58864;45.928;20.078;2023-11-22T09:13:05;18.30;;;7.40;;
71166;SDS011;58864;45.928;20.078;2023-11-22T09:15:29;17.67;;;7.47;;
71166;SDS011;58864;45.928;20.078;2023-11-22T09:17:54;18.45;;;7.95;;
71166;SDS011;58864;45.928;20.078;2023-11-22T09:20:19;17.20;;;7.70;;
71166;SDS011;58864;45.928;20.078;2023-11-22T09:22:44;19.75;;;8.18;;
71166;SDS011;58864;45.928;20.078;2023-11-22T09:25:11;19.77;;;7.55;;
71166;SDS011;58864;45.928;20.078;2023-11-22T09:27:36;20.00;;;7.97;;
71166;SDS011;58864;45.928;20.078;2023-11-22T09:30:01;17.92;;;7.22;;
71166;SDS011;58864;45.928;20.078;2023-11-22T09:32:25;17.30;;;7.83;;
71166;SDS011;58864;45.928;20.078;2023-11-22T09:34:49;20.30;;;7.83;;
71166;SDS011;58864;45.928;20.078;2023-11-22T09:37:14;34.90;;;10.90;;
71166;SDS011;58864;45.928;20.078;2023-11-22T09:39:38;17.43;;;7.43;;
71166;SDS011;58864;45.928;20.078;2023-11-22T09:42:03;17.83;;;7.57;;
71166;SDS011;58864;45.928;20.078;2023-11-22T09:44:28;18.02;;;7.90;;
71166;SDS011;58864;45.928;20.078;2023-11-22T09:46:53;15.30;;;7.10;;
71166;SDS011;58864;45.928;20.078;2023-11-22T09:49:19;16.80;;;7.03;;
71166;SDS011;58864;45.928;20.078;2023-11-22T09:51:47;22.23;;;8.13;;
71166;SDS011;58864;45.928;20.078;2023-11-22T09:54:12;18.08;;;7.72;;
71166;SDS011;58864;45.928;20.078;2023-11-22T09:56:38;17.52;;;7.40;;
71166;SDS011;58864;45.928;20.078;2023-11-22T09:59:03;14.23;;;6.93;;
71166;SDS011;58864;45.928;20.078;2023-11-22T10:01:28;19.85;;;8.95;;
71166;SDS011;58864;45.928;20.078;2023-11-22T10:03:54;17.92;;;7.50;;
71166;SDS011;58864;45.928;20.078;2023-11-22T10:06:20;16.90;;;7.35;;
71166;SDS011;58864;45.928;20.078;2023-11-22T10:08:44;16.87;;;7.33;;
71166;SDS011;58864;45.928;20.078;2023-11-22T10:11:12;16.27;;;7.20;;
71166;SDS011;58864;45.928;20.078;2023-11-22T10:13:39;15.10;;;6.68;;
71166;SDS011;58864;45.928;20.078;2023-11-22T10:16:13;16.67;;;7.27;;
71166;SDS011;58864;45.928;20.078;2023-11-22T10:18:43;17.70;;;7.55;;
71166;SDS011;58864;45.928;20.078;2023-11-22T10:21:21;18.20;;;7.80;;
71166;SDS011;58864;45.928;20.078;2023-11-22T10:23:46;15.32;;;7.13;;
71166;SDS011;58864;45.928;20.078;2023-11-22T10:26:15;19.08;;;8.13;;
71166;SDS011;58864;45.928;20.078;2023-11-22T10:28:40;16.30;;;7.00;;
71166;SDS011;58864;45.928;20.078;2023-11-22T10:31:06;15.87;;;7.23;;
71166;SDS011;58864;45.928;20.078;2023-11-22T10:33:31;15.73;;;6.97;;
71166;SDS011;58864;45.928;20.078;2023-11-22T10:35:57;16.30;;;7.10;;
71166;SDS011;58864;45.928;20.078;2023-11-22T10:38:21;13.60;;;6.73;;
71166;SDS011;58864;45.928;20.078;2023-11-22T10:40:46;15.05;;;7.07;;
71166;SDS011;58864;45.928;20.078;2023-11-22T10:43:12;15.38;;;7.55;;
71166;SDS011;58864;45.928;20.078;2023-11-22T10:45:37;14.97;;;7.10;;
71166;SDS011;58864;45.928;20.078;2023-11-22T10:48:01;15.35;;;7.75;;
71166;SDS011;58864;45.928;20.078;2023-11-22T10:50:26;14.00;;;7.40;;
71166;SDS011;58864;45.928;20.078;2023-11-22T10:52:52;14.52;;;7.25;;
71166;SDS011;58864;45.928;20.078;2023-11-22T10:55:19;14.18;;;5.93;;
71166;SDS011;58864;45.928;20.078;2023-11-22T10:57:46;12.23;;;6.40;;
71166;SDS011;58864;45.928;20.078;2023-11-22T11:00:15;12.83;;;5.70;;
71166;SDS011;58864;45.928;20.078;2023-11-22T11:02:41;14.30;;;5.45;;
71166;SDS011;58864;45.928;20.078;2023-11-22T11:05:16;14.02;;;6.22;;
71166;SDS011;58864;45.928;20.078;2023-11-22T11:07:43;12.23;;;5.45;;
71166;SDS011;58864;45.928;20.078;2023-11-22T11:10:11;12.68;;;5.78;;
71166;SDS011;58864;45.928;20.078;2023-11-22T11:12:36;11.70;;;5.17;;
71166;SDS011;58864;45.928;20.078;2023-11-22T11:15:00;10.00;;;4.37;;
71166;SDS011;58864;45.928;20.078;2023-11-22T11:17:25;13.35;;;5.03;;
71166;SDS011;58864;45.928;20.078;2023-11-22T11:19:50;11.70;;;4.87;;
71166;SDS011;58864;45.928;20.078;2023-11-22T11:22:14;9.65;;;4.25;;
71166;SDS011;58864;45.928;20.078;2023-11-22T11:24:40;10.40;;;3.90;;
71166;SDS011;58864;45.928;20.078;2023-11-22T11:27:06;11.38;;;3.63;;
71166;SDS011;58864;45.928;20.078;2023-11-22T11:29:35;10.18;;;4.47;;
71166;SDS011;58864;45.928;20.078;2023-11-22T11:32:02;8.65;;;3.70;;
71166;SDS011;58864;45.928;20.078;2023-11-22T11:34:27;10.15;;;4.03;;
71166;SDS011;58864;45.928;20.078;2023-11-22T11:36:53;7.50;;;3.40;;
71166;SDS011;58864;45.928;20.078;2023-11-22T11:39:24;9.02;;;3.47;;
71166;SDS011;58864;45.928;20.078;2023-11-22T11:41:53;12.82;;;4.32;;
71166;SDS011;58864;45.928;20.078;2023-11-22T11:44:32;9.35;;;3.60;;
71166;SDS011;58864;45.928;20.078;2023-11-22T11:46:57;8.80;;;2.85;;
71166;SDS011;58864;45.928;20.078;2023-11-22T11:49:21;10.00;;;3.97;;
71166;SDS011;58864;45.928;20.078;2023-11-22T11:51:46;9.63;;;3.27;;
71166;SDS011;58864;45.928;20.078;2023-11-22T11:54:14;14.35;;;4.93;;
71166;SDS011;58864;45.928;20.078;2023-11-22T11:56:40;10.75;;;3.83;;
71166;SDS011;58864;45.928;20.078;2023-11-22T11:59:05;13.00;;;4.73;;
71166;SDS011;58864;45.928;20.078;2023-11-22T12:01:30;9.40;;;3.63;;
71166;SDS011;58864;45.928;20.078;2023-11-22T12:03:56;11.07;;;4.30;;
71166;SDS011;58864;45.928;20.078;2023-11-22T12:06:20;10.90;;;4.17;;
71166;SDS011;58864;45.928;20.078;2023-11-22T12:08:46;9.52;;;4.00;;
71166;SDS011;58864;45.928;20.078;2023-11-22T12:11:11;10.27;;;3.80;;
71166;SDS011;58864;45.928;20.078;2023-11-22T12:13:36;9.67;;;3.37;;
71166;SDS011;58864;45.928;20.078;2023-11-22T12:16:10;8.20;;;3.13;;
71166;SDS011;58864;45.928;20.078;2023-11-22T12:18:42;9.77;;;4.03;;
71166;SDS011;58864;45.928;20.078;2023-11-22T12:21:09;11.20;;;4.23;;
71166;SDS011;58864;45.928;20.078;2023-11-22T12:23:38;9.77;;;3.75;;
71166;SDS011;58864;45.928;20.078;2023-11-22T12:26:03;9.80;;;3.40;;
71166;SDS011;58864;45.928;20.078;2023-11-22T12:28:27;7.43;;;3.00;;
71166;SDS011;58864;45.928;20.078;2023-11-22T12:30:52;7.15;;;2.72;;
71166;SDS011;58864;45.928;20.078;2023-11-22T12:33:17;8.73;;;3.20;;
71166;SDS011;58864;45.928;20.078;2023-11-22T12:35:43;9.43;;;3.40;;
71166;SDS011;58864;45.928;20.078;2023-11-22T12:38:10;8.23;;;3.30;;
71166;SDS011;58864;45.928;20.078;2023-11-22T12:40:36;9.52;;;3.30;;
71166;SDS011;58864;45.928;20.078;2023-11-22T12:43:00;9.23;;;3.42;;
71166;SDS011;58864;45.928;20.078;2023-11-22T12:45:26;9.03;;;3.83;;
71166;SDS011;58864;45.928;20.078;2023-11-22T12:47:52;8.35;;;3.92;;
71166;SDS011;58864;45.928;20.078;2023-11-22T12:50:35;6.53;;;2.80;;
71166;SDS011;58864;45.928;20.078;2023-11-22T12:53:13;8.00;;;3.10;;
71166;SDS011;58864;45.928;20.078;2023-11-22T12:55:45;7.45;;;3.20;;
71166;SDS011;58864;45.928;20.078;2023-11-22T12:58:12;7.07;;;2.90;;
71166;SDS011;58864;45.928;20.078;2023-11-22T13:00:38;8.48;;;3.03;;
71166;SDS011;58864;45.928;20.078;2023-11-22T13:03:03;8.05;;;3.20;;
71166;SDS011;58864;45.928;20.078;2023-11-22T13:05:28;10.25;;;3.30;;
71166;SDS011;58864;45.928;20.078;2023-11-22T13:07:52;8.23;;;3.20;;
71166;SDS011;58864;45.928;20.078;2023-11-22T13:10:18;6.80;;;2.63;;
71166;SDS011;58864;45.928;20.078;2023-11-22T13:12:43;9.40;;;3.53;;
71166;SDS011;58864;45.928;20.078;2023-11-22T13:15:10;9.65;;;4.10;;
71166;SDS011;58864;45.928;20.078;2023-11-22T13:17:37;13.77;;;4.75;;
71166;SDS011;58864;45.928;20.078;2023-11-22T13:20:03;119.20;;;27.07;;
71166;SDS011;58864;45.928;20.078;2023-11-22T13:22:37;13.88;;;5.45;;
71166;SDS011;58864;45.928;20.078;2023-11-22T13:25:02;11.23;;;4.63;;
71166;SDS011;58864;45.928;20.078;2023-11-22T13:27:26;13.98;;;5.55;;
71166;SDS011;58864;45.928;20.078;2023-11-22T13:29:51;18.27;;;6.57;;
71166;SDS011;58864;45.928;20.078;2023-11-22T13:32:17;92.70;;;25.30;;
71166;SDS011;58864;45.928;20.078;2023-11-22T13:34:41;20.33;;;6.77;;
71166;SDS011;58864;45.928;20.078;2023-11-22T13:37:06;9.32;;;4.22;;
71166;SDS011;58864;45.928;20.078;2023-11-22T13:39:31;12.53;;;4.93;;
71166;SDS011;58864;45.928;20.078;2023-11-22T13:41:57;10.77;;;5.43;;
71166;SDS011;58864;45.928;20.078;2023-11-22T13:44:22;12.20;;;5.53;;
71166;SDS011;58864;45.928;20.078;2023-11-22T13:46:46;13.27;;;7.53;;
71166;SDS011;58864;45.928;20.078;2023-11-22T13:49:10;12.90;;;5.13;;
71166;SDS011;58864;45.928;20.078;2023-11-22T13:51:35;10.88;;;4.68;;
71166;SDS011;58864;45.928;20.078;2023-11-22T13:54:00;11.73;;;5.40;;
71166;SDS011;58864;45.928;20.078;2023-11-22T13:56:24;11.40;;;4.10;;
71166;SDS011;58864;45.928;20.078;2023-11-22T13:58:48;7.93;;;3.50;;
71166;SDS011;58864;45.928;20.078;2023-11-22T14:01:13;12.20;;;4.97;;
71166;SDS011;58864;45.928;20.078;2023-11-22T14:03:45;10.18;;;4.07;;